Time;durP1;ratioP1;P1;durP2;ratioP2;P2;SDS_P1;SDS_P2;PMS_P1;PMS_P2;Temp;Humidity;BMP_temperature;BMP_pressure;BME280_temperature;BME280_humidity;BME280_pressure;Samples;Min_cycle;Max_cycle;Signal;HPM_P1;HPM_P2
2021/12/17 00:00:56;;;;;;;0.20;0.00;;;9.00;99.90;;;;;;20995229;28;20233;-70
2021/12/17 00:11:04;;;;;;;0.20;0.10;;;9.20;99.90;;;;;;21006808;28;20196;-70
2021/12/17 00:52:13;;;;;;;0.20;0.07;;;10.00;99.90;;;;;;21000424;28;20276;-70
2021/12/17 01:02:21;;;;;;;0.20;0.00;;;10.10;99.90;;;;;;21009473;23;20282;-68
2021/12/17 01:12:26;;;;;;;0.20;0.00;;;10.30;99.90;;;;;;20989560;28;22421;-69
2021/12/17 01:22:57;;;;;;;0.20;0.10;;;10.40;99.90;;;;;;20999425;28;20223;-68
2021/12/17 01:43:26;;;;;;;0.20;0.10;;;10.50;99.90;;;;;;21000279;28;20243;-67
2021/12/17 02:03:52;;;;;;;0.20;0.00;;;10.60;99.90;;;;;;20998900;28;20232;-68
2021/12/17 02:35:01;;;;;;;0.20;0.10;;;10.50;99.90;;;;;;20939695;28;20251;-69
2021/12/17 02:55:42;;;;;;;0.20;0.10;;;10.20;99.90;;;;;;20916953;28;20251;-69
2021/12/17 03:05:47;;;;;;;0.20;0.00;;;10.10;99.90;;;;;;20994116;28;20228;-69
2021/12/17 03:15:56;;;;;;;0.20;0.10;;;10.10;99.90;;;;;;20933447;28;20281;-68
2021/12/17 03:26:03;;;;;;;0.20;0.10;;;10.10;99.90;;;;;;20925587;28;20589;-68
2021/12/17 03:36:07;;;;;;;0.20;0.10;;;10.20;99.90;;;;;;20946679;28;20207;-68
2021/12/17 03:46:12;;;;;;;0.20;0.10;;;10.10;99.90;;;;;;20991920;28;20213;-68
2021/12/17 03:56:16;;;;;;;0.20;0.00;;;10.10;99.90;;;;;;20973105;28;20254;-67
2021/12/17 04:06:22;;;;;;;3.57;1.17;;;10.00;99.90;;;;;;20991226;28;20286;-67
2021/12/17 04:16:29;;;;;;;0.37;0.37;;;10.00;99.90;;;;;;20926596;28;20191;-68
2021/12/17 04:26:33;;;;;;;0.30;0.30;;;10.00;99.90;;;;;;20922191;28;20217;-68
2021/12/17 04:36:37;;;;;;;0.20;0.10;;;10.10;99.90;;;;;;20950833;28;20280;-68
2021/12/17 04:46:47;;;;;;;0.67;0.67;;;10.20;99.90;;;;;;20992748;28;20228;-67
2021/12/17 05:07:14;;;;;;;0.20;0.10;;;10.10;99.90;;;;;;21002401;28;20319;-68
2021/12/17 05:27:39;;;;;;;0.20;0.10;;;10.00;99.90;;;;;;20919367;28;20225;-68
2021/12/17 05:37:43;;;;;;;0.20;0.00;;;10.00;99.90;;;;;;20918954;28;20204;-68
2021/12/17 05:47:48;;;;;;;5.33;4.80;;;9.90;99.90;;;;;;20900569;28;20227;-67
2021/12/17 05:57:52;;;;;;;0.20;0.10;;;9.80;99.90;;;;;;20917592;28;20196;-67
2021/12/17 06:07:58;;;;;;;0.20;0.10;;;9.80;99.90;;;;;;20902037;28;20256;-68
2021/12/17 06:18:02;;;;;;;0.20;0.10;;;9.80;99.90;;;;;;20914290;28;20198;-67
2021/12/17 06:28:07;;;;;;;0.20;0.10;;;9.80;99.90;;;;;;20913003;28;20239;-68
2021/12/17 06:38:11;;;;;;;0.20;0.10;;;9.70;99.90;;;;;;20910918;28;20293;-67
2021/12/17 06:48:20;;;;;;;0.20;0.10;;;9.80;99.90;;;;;;20909893;28;20298;-68
2021/12/17 06:58:50;;;;;;;0.20;0.10;;;9.80;99.90;;;;;;20907099;28;20284;-69
2021/12/17 07:09:29;;;;;;;0.20;0.00;;;9.80;99.90;;;;;;20901280;28;20790;-67
2021/12/17 07:40:13;;;;;;;0.20;0.10;;;9.10;99.90;;;;;;20906754;28;20655;-68
2021/12/17 07:50:18;;;;;;;0.20;0.20;;;9.10;99.90;;;;;;20906283;28;20645;-68
2021/12/17 08:00:22;;;;;;;0.20;0.10;;;9.10;99.90;;;;;;20897067;28;20247;-69
2021/12/17 08:10:27;;;;;;;0.20;0.00;;;9.10;99.90;;;;;;20987326;28;20772;-67
2021/12/17 08:30:53;;;;;;;0.20;0.00;;;9.20;99.90;;;;;;21003183;28;20326;-67
2021/12/17 08:40:59;;;;;;;0.20;0.00;;;9.50;99.90;;;;;;21003809;28;20697;-67
2021/12/17 08:51:06;;;;;;;0.20;0.10;;;9.80;99.90;;;;;;21001077;28;20275;-67
2021/12/17 09:01:10;;;;;;;0.20;0.10;;;10.20;99.90;;;;;;20985058;28;20320;-67
2021/12/17 09:11:15;;;;;;;0.20;0.13;;;10.70;99.90;;;;;;20916979;28;20201;-68
2021/12/17 09:21:19;;;;;;;0.20;0.10;;;11.30;99.90;;;;;;20917401;28;20229;-68
2021/12/17 09:31:25;;;;;;;0.20;0.00;;;11.70;99.90;;;;;;20898208;28;20194;-71
2021/12/17 09:41:28;;;;;;;0.20;0.07;;;11.90;99.90;;;;;;20915406;28;20710;-68
2021/12/17 09:51:34;;;;;;;0.20;0.10;;;12.30;99.90;;;;;;20864423;28;20198;-68
2021/12/17 10:01:39;;;;;;;0.20;0.10;;;12.60;99.90;;;;;;20799460;28;20291;-68
2021/12/17 10:12:03;;;;;;;0.83;0.83;;;12.90;99.90;;;;;;20893305;28;20654;-71
2021/12/17 10:22:11;;;;;;;0.20;0.10;;;13.10;99.90;;;;;;20979498;28;20281;-69
2021/12/17 10:32:21;;;;;;;0.73;0.73;;;13.60;99.90;;;;;;20961121;28;20303;-69
2021/12/17 10:42:33;;;;;;;0.20;0.00;;;14.30;99.90;;;;;;20959158;28;20267;-67
2021/12/17 10:52:44;;;;;;;0.20;0.10;;;14.80;99.90;;;;;;20893627;28;20193;-67
2021/12/17 11:02:49;;;;;;;0.20;0.10;;;15.00;99.90;;;;;;20861054;28;20709;-67
2021/12/17 11:12:56;;;;;;;0.67;0.63;;;15.20;99.90;;;;;;20928786;28;20480;-67
2021/12/17 11:23:04;;;;;;;0.20;0.20;;;15.40;99.90;;;;;;20957430;28;20319;-67
2021/12/17 11:33:10;;;;;;;0.20;0.00;;;15.80;99.90;;;;;;20977717;28;20204;-68
2021/12/17 11:43:49;;;;;;;0.20;0.10;;;15.70;99.90;;;;;;20948626;28;20303;-66
2021/12/17 11:54:04;;;;;;;0.20;0.10;;;16.00;99.90;;;;;;20892902;28;20235;-70
2021/12/17 12:04:24;;;;;;;5.20;1.40;;;16.60;99.90;;;;;;20891191;28;20573;-69
2021/12/17 12:14:32;;;;;;;0.20;0.20;;;16.90;99.90;;;;;;20938345;28;20203;-68
2021/12/17 12:24:36;;;;;;;0.20;0.10;;;17.20;99.90;;;;;;20973489;28;20397;-70
2021/12/17 12:34:43;;;;;;;0.20;0.10;;;17.60;99.90;;;;;;20973697;28;20219;-70
2021/12/17 12:45:08;;;;;;;0.20;0.10;;;17.40;99.90;;;;;;20932347;28;20719;-70
2021/12/17 12:55:20;;;;;;;0.27;0.27;;;17.50;99.90;;;;;;20890002;28;20201;-69
2021/12/17 13:05:25;;;;;;;0.20;0.10;;;17.60;99.90;;;;;;20889666;28;20237;-68
2021/12/17 13:15:40;;;;;;;0.20;0.07;;;17.30;99.90;;;;;;20958297;28;20749;-69
2021/12/17 13:25:45;;;;;;;0.20;0.00;;;17.60;99.90;;;;;;20982384;28;20737;-69
2021/12/17 13:35:50;;;;;;;0.20;0.10;;;16.90;99.90;;;;;;20974978;28;20201;-70
2021/12/17 13:45:55;;;;;;;0.20;0.10;;;17.10;99.90;;;;;;20932747;28;20662;-69
2021/12/17 13:56:00;;;;;;;0.30;0.30;;;17.90;99.90;;;;;;20900681;28;20234;-70
2021/12/17 14:06:11;;;;;;;0.20;0.10;;;17.40;99.90;;;;;;20900467;28;20328;-67
2021/12/17 14:16:28;;;;;;;0.50;0.50;;;17.50;99.90;;;;;;20962373;28;20196;-71
2021/12/17 14:26:33;;;;;;;0.20;0.00;;;17.50;99.90;;;;;;20982639;28;20251;-67
2021/12/17 14:36:39;;;;;;;0.20;0.10;;;17.80;99.90;;;;;;20979842;28;20288;-67
2021/12/17 14:46:49;;;;;;;0.20;0.10;;;17.10;99.90;;;;;;20923793;28;20592;-67
2021/12/17 15:07:20;;;;;;;0.20;0.00;;;15.70;99.90;;;;;;20895108;28;20595;-70
2021/12/17 15:17:27;;;;;;;0.20;0.00;;;15.70;99.90;;;;;;20966065;28;20231;-70
2021/12/17 15:27:51;;;;;;;0.47;0.47;;;14.40;99.90;;;;;;20958168;28;20235;-69
2021/12/17 15:37:58;;;;;;;0.20;0.10;;;14.00;99.90;;;;;;20948406;28;20208;-69
2021/12/17 15:48:06;;;;;;;0.20;0.10;;;13.80;99.90;;;;;;20887126;28;20225;-70
2021/12/17 15:58:32;;;;;;;0.20;0.10;;;13.70;99.90;;;;;;20789227;28;20605;-69
2021/12/17 16:08:42;;;;;;;0.20;0.00;;;13.30;99.90;;;;;;20810194;28;20634;-67
2021/12/17 16:18:55;;;;;;;0.20;0.10;;;13.20;99.90;;;;;;20735699;28;20277;-66
2021/12/17 16:29:00;;;;;;;0.20;0.10;;;13.20;99.90;;;;;;20740566;28;20285;-66
2021/12/17 16:39:07;;;;;;;0.20;0.00;;;13.00;99.90;;;;;;20739110;28;20199;-67
2021/12/17 16:49:14;;;;;;;0.20;0.10;;;12.90;99.90;;;;;;20751830;28;20237;-67
2021/12/17 16:59:19;;;;;;;0.20;0.10;;;12.70;99.90;;;;;;20750749;28;20199;-67
2021/12/17 17:09:23;;;;;;;0.20;0.10;;;12.80;99.90;;;;;;20765562;28;20571;-67
2021/12/17 17:19:28;;;;;;;0.20;0.10;;;12.90;99.90;;;;;;20917386;28;20285;-67
2021/12/17 17:29:32;;;;;;;0.20;0.10;;;12.60;99.90;;;;;;20916439;28;20300;-67
2021/12/17 17:39:37;;;;;;;0.20;0.10;;;12.60;99.90;;;;;;20773799;28;20195;-68
2021/12/17 17:49:41;;;;;;;0.20;0.10;;;12.60;99.90;;;;;;20748278;28;20242;-67
2021/12/17 17:59:48;;;;;;;0.20;0.10;;;12.50;99.90;;;;;;20752552;28;20581;-67
2021/12/17 18:09:51;;;;;;;0.53;0.53;;;12.00;99.90;;;;;;20839440;28;20308;-66
2021/12/17 18:19:56;;;;;;;0.20;0.07;;;11.40;99.90;;;;;;20886203;28;20194;-66
2021/12/17 18:30:10;;;;;;;0.20;0.00;;;11.30;99.90;;;;;;20811307;28;20252;-68
2021/12/17 18:40:22;;;;;;;0.77;0.77;;;11.00;99.90;;;;;;20822849;28;20329;-67
2021/12/17 18:50:26;;;;;;;0.20;0.10;;;10.90;99.90;;;;;;20826583;28;20304;-67
2021/12/17 19:00:31;;;;;;;0.20;0.10;;;10.90;99.90;;;;;;20826332;28;20247;-67
2021/12/17 19:10:35;;;;;;;0.20;0.10;;;11.10;99.90;;;;;;20837711;28;20270;-65
2021/12/17 19:20:43;;;;;;;0.20;0.10;;;10.90;99.90;;;;;;20906657;28;20281;-67
2021/12/17 19:30:46;;;;;;;0.20;0.03;;;11.00;99.90;;;;;;20906673;28;20217;-69
2021/12/17 19:40:51;;;;;;;0.20;0.10;;;10.90;99.90;;;;;;20747962;28;20202;-70
2021/12/17 19:50:55;;;;;;;4.50;4.23;;;11.00;99.90;;;;;;20742112;28;20231;-67
2021/12/17 20:01:00;;;;;;;8.50;5.50;;;10.90;99.90;;;;;;20741490;28;20576;-67
2021/12/17 20:11:04;;;;;;;0.20;0.10;;;10.90;99.90;;;;;;20779476;28;20233;-67
2021/12/17 20:21:10;;;;;;;10.30;9.63;;;10.60;99.90;;;;;;20913923;28;20592;-68
2021/12/17 20:31:14;;;;;;;0.20;0.10;;;10.30;99.90;;;;;;20901879;28;20221;-67
2021/12/17 20:41:25;;;;;;;0.20;0.10;;;10.10;99.90;;;;;;20834774;28;20205;-67
2021/12/17 20:51:29;;;;;;;0.30;0.30;;;9.90;99.90;;;;;;20837633;28;20222;-67
2021/12/17 21:01:36;;;;;;;0.20;0.10;;;9.70;99.90;;;;;;20854671;28;20225;-66
2021/12/17 21:11:45;;;;;;;0.20;0.10;;;9.60;99.90;;;;;;20919132;28;20226;-68
2021/12/17 21:21:51;;;;;;;0.20;0.00;;;9.20;99.90;;;;;;20915367;28;20204;-67
2021/12/17 21:31:57;;;;;;;0.20;0.10;;;9.10;99.90;;;;;;20914382;28;20709;-68
2021/12/17 21:42:02;;;;;;;0.20;0.00;;;8.90;99.90;;;;;;20831790;28;20210;-68
2021/12/17 21:52:07;;;;;;;0.20;0.10;;;8.80;99.90;;;;;;20833605;28;20222;-67
2021/12/17 22:02:13;;;;;;;0.20;0.10;;;8.70;99.90;;;;;;20791537;28;20254;-68
2021/12/17 22:12:16;;;;;;;0.20;0.00;;;8.70;99.90;;;;;;20808422;28;20228;-68
2021/12/17 22:22:29;;;;;;;0.20;0.10;;;9.00;99.90;;;;;;20895238;28;20204;-69
2021/12/17 22:32:33;;;;;;;0.20;0.10;;;9.10;99.90;;;;;;20879964;28;20217;-69
2021/12/17 22:42:38;;;;;;;0.20;0.10;;;8.90;99.90;;;;;;20829423;28;20217;-68
2021/12/17 22:52:41;;;;;;;0.20;0.10;;;8.80;99.90;;;;;;20829228;28;20236;-68
2021/12/17 23:02:46;;;;;;;0.20;0.10;;;8.70;99.90;;;;;;20828289;28;20233;-67
2021/12/17 23:12:50;;;;;;;0.20;0.03;;;8.90;99.90;;;;;;20862498;28;20232;-68
2021/12/17 23:22:55;;;;;;;0.20;0.10;;;9.00;99.90;;;;;;20908693;28;20280;-68
2021/12/17 23:33:03;;;;;;;0.20;0.10;;;9.10;99.90;;;;;;20862735;28;20377;-69
2021/12/17 23:43:08;;;;;;;0.20;0.10;;;9.10;99.90;;;;;;20726032;28;20329;-68
2021/12/17 23:53:12;;;;;;;0.20;0.10;;;9.00;99.90;;;;;;20742568;28;20227;-69
